createdAt,value
2019-03-06T15:21:01.285Z,17.38
2019-03-06T15:22:38.515Z,17.30
2019-03-06T15:24:11.519Z,17.24
2019-03-06T15:25:45.734Z,17.19
2019-03-06T15:27:20.330Z,17.15
2019-03-06T15:28:54.549Z,17.13
2019-03-06T15:30:28.819Z,17.11
2019-03-06T15:32:02.985Z,17.06
2019-03-06T15:33:37.783Z,17.00
2019-03-06T15:35:12.947Z,16.97
2019-03-06T15:36:47.441Z,16.91
2019-03-06T15:38:21.793Z,16.85
2019-03-06T15:39:58.150Z,16.81
2019-03-06T15:41:32.404Z,16.76
2019-03-06T15:43:08.581Z,16.72
2019-03-06T15:44:43.187Z,16.67
2019-03-06T15:46:17.823Z,16.60
2019-03-06T15:47:52.086Z,16.59
2019-03-06T15:49:26.358Z,16.58
2019-03-06T15:51:00.581Z,16.59
2019-03-06T15:52:35.161Z,16.58
2019-03-06T15:54:09.551Z,16.54
2019-03-06T15:55:43.761Z,16.47
2019-03-06T15:57:18.332Z,16.36
2019-03-06T15:58:55.842Z,16.28
2019-03-06T16:00:46.180Z,16.16
2019-03-06T16:02:16.420Z,16.05
2019-03-06T16:03:50.716Z,16.06
2019-03-06T16:05:26.950Z,16.06
2019-03-06T16:07:01.516Z,16.06
2019-03-06T16:08:35.801Z,16.01
2019-03-06T16:10:10.061Z,15.94
2019-03-06T16:11:44.580Z,15.90
2019-03-06T16:13:19.417Z,15.87
2019-03-06T16:14:53.703Z,15.78
2019-03-06T16:16:27.926Z,15.79
2019-03-06T16:18:09.321Z,15.66
2019-03-06T16:19:43.628Z,15.63
2019-03-06T16:21:18.301Z,15.63
2019-03-06T16:22:52.648Z,15.65
2019-03-06T16:24:27.186Z,15.65
2019-03-06T16:26:01.480Z,15.69
2019-03-06T16:27:35.817Z,15.72
2019-03-06T16:29:10.156Z,15.66
2019-03-06T16:30:45.142Z,15.61
2019-03-06T16:32:19.365Z,15.56
2019-03-06T16:33:54.050Z,15.57
2019-03-06T16:35:28.295Z,15.50
2019-03-06T16:37:02.899Z,15.42
2019-03-06T16:38:37.174Z,15.38
2019-03-06T16:40:23.264Z,15.39
2019-03-06T16:41:57.582Z,15.34
2019-03-06T16:43:32.201Z,15.28
2019-03-06T16:45:08.340Z,15.19
2019-03-06T16:46:42.624Z,15.26
2019-03-06T16:48:16.883Z,15.23
2019-03-06T16:49:51.801Z,15.18
2019-03-06T16:51:26.022Z,15.16
2019-03-06T16:53:00.318Z,15.13
2019-03-06T16:54:34.563Z,15.18
2019-03-06T16:56:09.060Z,15.19
2019-03-06T16:57:43.384Z,15.19
2019-03-06T16:59:17.710Z,15.13
2019-03-06T17:00:53.121Z,15.01
2019-03-06T17:02:28.288Z,14.90
2019-03-06T17:04:02.569Z,14.88
2019-03-06T17:05:36.831Z,14.88
2019-03-06T17:07:11.030Z,14.83
2019-03-06T17:08:45.999Z,14.78
2019-03-06T17:10:24.967Z,14.73
2019-03-06T17:11:59.224Z,14.74
2019-03-06T17:13:33.423Z,14.75
2019-03-06T17:15:10.013Z,14.74
2019-03-06T17:16:44.243Z,14.71
2019-03-06T17:18:18.671Z,14.61
2019-03-06T17:19:52.954Z,14.53
2019-03-06T17:21:27.365Z,14.43
2019-03-06T17:23:01.844Z,14.31
2019-03-06T17:24:36.302Z,14.17
2019-03-06T17:26:10.708Z,14.05
2019-03-06T17:27:45.720Z,13.96
2019-03-06T17:29:19.966Z,13.92
2019-03-06T17:30:54.261Z,13.98
2019-03-06T17:32:28.555Z,13.98
2019-03-06T17:34:03.920Z,13.97
2019-03-06T17:35:39.071Z,13.89
2019-03-06T17:37:13.378Z,13.84
2019-03-06T17:38:47.705Z,13.82
2019-03-06T17:40:22.978Z,13.76
2019-03-06T17:41:57.292Z,13.76
2019-03-06T17:43:31.498Z,13.77
2019-03-06T17:45:06.259Z,13.68
2019-03-06T17:46:40.831Z,13.58
2019-03-06T17:48:15.429Z,13.48
2019-03-06T17:49:49.722Z,13.38
2019-03-06T17:51:23.991Z,13.33
2019-03-06T17:52:58.394Z,13.30
2019-03-06T17:54:32.697Z,13.23
2019-03-06T17:56:07.215Z,13.12
2019-03-06T17:57:41.639Z,13.03
2019-03-06T17:59:16.143Z,12.95
2019-03-06T18:00:52.405Z,12.91
2019-03-06T18:02:28.251Z,12.84
2019-03-06T18:04:04.155Z,12.75
2019-03-06T18:05:38.682Z,12.67
2019-03-06T18:07:12.918Z,12.60
2019-03-06T18:08:47.316Z,12.47
2019-03-06T18:10:21.721Z,12.36
2019-03-06T18:11:56.245Z,12.25
2019-03-06T18:13:30.476Z,12.17
2019-03-06T18:15:07.846Z,12.08
2019-03-06T18:16:42.171Z,11.98
2019-03-06T18:18:16.682Z,11.88
2019-03-06T18:19:51.065Z,11.84
2019-03-06T18:21:25.899Z,11.79
2019-03-06T18:23:00.207Z,11.73
2019-03-06T18:24:34.649Z,11.67
2019-03-06T18:26:08.657Z,11.59
2019-03-06T18:27:43.244Z,11.51
2019-03-06T18:29:17.500Z,11.41
2019-03-06T18:30:52.433Z,11.34
2019-03-06T18:32:26.653Z,11.29
2019-03-06T18:34:00.930Z,11.23
2019-03-06T18:35:35.231Z,11.15
2019-03-06T18:37:09.951Z,11.06
2019-03-06T18:38:44.452Z,11.02
2019-03-06T18:40:20.373Z,10.97
2019-03-06T18:41:54.389Z,10.93
2019-03-06T18:43:28.276Z,10.88
2019-03-06T18:45:02.641Z,10.83
2019-03-06T18:46:39.614Z,10.81
2019-03-06T18:48:13.860Z,10.72
2019-03-06T18:49:48.423Z,10.64
2019-03-06T18:51:22.834Z,10.53
2019-03-06T18:52:59.096Z,10.45
2019-03-06T18:54:33.054Z,10.35
2019-03-06T18:56:07.613Z,10.26
2019-03-06T18:57:41.304Z,10.26
2019-03-06T18:59:15.632Z,10.26
2019-03-06T19:00:49.963Z,10.25
2019-03-06T19:02:24.554Z,10.21
2019-03-06T19:03:59.344Z,10.13
2019-03-06T19:05:33.028Z,10.03
2019-03-06T19:07:07.250Z,9.92
2019-03-06T19:08:41.695Z,9.77
2019-03-06T19:10:22.670Z,9.65
2019-03-06T19:11:57.323Z,9.53
2019-03-06T19:13:31.046Z,9.45
2019-03-06T19:15:08.573Z,9.38
2019-03-06T19:16:42.892Z,9.32
2019-03-06T19:18:16.585Z,9.30
2019-03-06T19:19:50.884Z,9.30
2019-03-06T19:21:25.389Z,9.30
2019-03-06T19:22:59.047Z,9.28
2019-03-06T19:24:33.254Z,9.23
2019-03-06T19:26:07.551Z,9.21
2019-03-06T19:27:42.268Z,9.20
2019-03-06T19:29:15.912Z,9.21
2019-03-06T19:30:50.193Z,9.21
2019-03-06T19:32:23.823Z,9.19
2019-03-06T19:33:58.672Z,9.17
2019-03-06T19:35:32.420Z,9.14
2019-03-06T19:37:06.158Z,9.08
2019-03-06T19:38:40.463Z,9.02
2019-03-06T19:40:16.712Z,8.93
2019-03-06T19:41:51.286Z,8.79
2019-03-06T19:43:27.819Z,8.62
2019-03-06T19:45:02.163Z,8.51
2019-03-06T19:46:36.751Z,8.43
2019-03-06T19:48:10.405Z,8.32
2019-03-06T19:49:44.050Z,8.23
2019-03-06T19:51:17.751Z,8.19
2019-03-06T19:52:51.594Z,8.12
2019-03-06T19:54:25.460Z,8.06
2019-03-06T19:55:59.749Z,7.98
2019-03-06T19:57:42.482Z,7.93
2019-03-06T19:59:16.619Z,7.83
2019-03-06T20:00:50.261Z,7.76
2019-03-06T20:02:23.904Z,7.68
2019-03-06T20:03:57.617Z,7.62
2019-03-06T20:05:34.724Z,7.55
2019-03-06T20:07:09.222Z,7.50
2019-03-06T20:08:42.909Z,7.48
2019-03-06T20:10:16.844Z,7.46
2019-03-06T20:11:50.936Z,7.43
2019-03-06T20:13:24.552Z,7.39
2019-03-06T20:14:58.318Z,7.36
2019-03-06T20:16:32.002Z,6.80
2019-03-06T20:18:06.222Z,7.24
2019-03-06T20:19:39.974Z,7.19
2019-03-06T20:21:13.610Z,7.14
2019-03-06T20:22:48.224Z,7.05
2019-03-06T20:24:22.660Z,6.94
2019-03-06T20:25:56.339Z,6.80
2019-03-06T20:27:30.100Z,6.70
2019-03-06T20:29:03.902Z,6.60
2019-03-06T20:30:37.829Z,6.46
2019-03-06T20:32:11.454Z,6.35
2019-03-06T20:33:45.221Z,6.26
2019-03-06T20:35:24.002Z,6.22
2019-03-06T20:36:57.797Z,6.18
2019-03-06T20:38:31.463Z,6.14
2019-03-06T20:40:10.791Z,6.10
2019-03-06T20:41:44.468Z,6.07
2019-03-06T20:43:18.711Z,6.06
2019-03-06T20:44:52.413Z,6.04
2019-03-06T20:46:26.133Z,6.02
2019-03-06T20:47:59.863Z,6.02
2019-03-06T20:49:33.762Z,6.01
2019-03-06T20:51:08.462Z,6.01
2019-03-06T20:52:42.494Z,6.00
2019-03-06T20:54:16.469Z,6.01
2019-03-06T20:55:50.613Z,6.02
2019-03-06T20:57:24.229Z,6.03
2019-03-06T20:58:58.581Z,6.04
2019-03-06T21:00:33.881Z,6.03
2019-03-06T21:02:07.962Z,5.99
2019-03-06T21:03:41.570Z,5.96
2019-03-06T21:05:15.369Z,5.95
2019-03-06T21:06:49.083Z,5.94
2019-03-06T21:08:23.052Z,5.91
2019-03-06T21:09:56.743Z,5.87
2019-03-06T21:11:30.431Z,5.71
2019-03-06T21:13:04.114Z,5.58
2019-03-06T21:14:39.673Z,5.49
2019-03-06T21:16:13.386Z,5.42
2019-03-06T21:17:47.246Z,5.35
2019-03-06T21:19:20.999Z,5.32
2019-03-06T21:20:54.966Z,5.31
2019-03-06T21:22:28.611Z,5.28
2019-03-06T21:24:02.275Z,5.26
2019-03-06T21:25:36.037Z,5.25
2019-03-06T21:27:10.063Z,5.24
2019-03-06T21:28:43.757Z,5.19
2019-03-06T21:30:30.036Z,5.15
2019-03-06T21:32:03.732Z,5.11
2019-03-06T21:33:37.953Z,5.07
2019-03-06T21:35:11.761Z,5.07
2019-03-06T21:36:45.388Z,5.06
2019-03-06T21:38:19.176Z,5.03
2019-03-06T21:39:52.989Z,5.03
2019-03-06T21:41:26.626Z,5.04
2019-03-06T21:43:00.719Z,5.03
2019-03-06T21:44:34.392Z,4.99
2019-03-06T21:46:08.894Z,4.96
2019-03-06T21:47:42.685Z,4.96
2019-03-06T21:49:16.409Z,4.93
2019-03-06T21:50:50.095Z,4.92
2019-03-06T21:52:24.157Z,4.90
2019-03-06T21:53:57.868Z,4.86
2019-03-06T21:55:31.622Z,4.81
2019-03-06T21:57:05.271Z,4.79
2019-03-06T21:58:39.145Z,4.74
2019-03-06T22:00:18.601Z,4.71
2019-03-06T22:01:52.747Z,4.69
2019-03-06T22:03:26.460Z,4.68
2019-03-06T22:05:00.792Z,4.65
2019-03-06T22:06:34.510Z,4.63
2019-03-06T22:08:08.196Z,4.60
2019-03-06T22:09:41.859Z,4.55
2019-03-06T22:11:17.319Z,4.51
2019-03-06T22:12:50.960Z,4.49
2019-03-06T22:14:24.633Z,4.45
2019-03-06T22:15:58.326Z,4.43
2019-03-06T22:17:32.618Z,4.39
2019-03-06T22:19:06.336Z,4.37
2019-03-06T22:20:40.038Z,4.36
2019-03-06T22:22:14.017Z,4.30
2019-03-06T22:23:47.927Z,4.28
2019-03-06T22:25:21.585Z,4.22
2019-03-06T22:26:55.205Z,4.17
2019-03-06T22:28:29.447Z,4.14
2019-03-06T22:30:04.768Z,4.11
2019-03-06T22:31:38.473Z,4.08
2019-03-06T22:33:12.450Z,4.03
2019-03-06T22:34:46.440Z,4.00
2019-03-06T22:36:20.354Z,4.00
2019-03-06T22:37:53.973Z,4.01
2019-03-06T22:39:27.804Z,4.02
2019-03-06T22:41:01.437Z,4.04
2019-03-06T22:42:35.458Z,4.04
2019-03-06T22:44:09.080Z,4.03
2019-03-06T22:45:42.788Z,4.03
2019-03-06T22:47:16.516Z,4.02
2019-03-06T22:48:50.384Z,4.01
2019-03-06T22:50:25.474Z,4.01
2019-03-06T22:51:59.564Z,4.00
2019-03-06T22:53:35.625Z,3.96
2019-03-06T22:55:20.108Z,3.90
2019-03-06T22:56:53.743Z,3.79
2019-03-06T22:58:27.466Z,3.76
2019-03-06T23:00:01.215Z,3.72
2019-03-06T23:01:35.714Z,3.72
2019-03-06T23:03:09.434Z,3.68
2019-03-06T23:04:43.557Z,3.67
2019-03-06T23:06:17.317Z,3.69
2019-03-06T23:07:51.395Z,3.73
2019-03-06T23:09:25.163Z,3.75
2019-03-06T23:10:58.802Z,3.77
2019-03-06T23:12:32.653Z,3.77
2019-03-06T23:14:06.578Z,3.75
2019-03-06T23:15:40.874Z,3.74
2019-03-06T23:17:14.595Z,3.73
2019-03-06T23:18:48.303Z,3.72
2019-03-06T23:20:24.326Z,3.66
2019-03-06T23:21:59.756Z,3.54
2019-03-06T23:23:33.740Z,3.42
2019-03-06T23:25:07.586Z,3.30
2019-03-06T23:26:43.053Z,3.28
2019-03-06T23:28:16.814Z,3.27
2019-03-06T23:29:50.439Z,3.19
2019-03-06T23:31:24.061Z,3.15
2019-03-06T23:32:58.324Z,3.07
2019-03-06T23:34:32.031Z,3.08
2019-03-06T23:36:05.734Z,3.10
2019-03-06T23:37:39.555Z,3.06
2019-03-06T23:39:14.477Z,3.04
2019-03-06T23:40:48.109Z,3.02
2019-03-06T23:42:21.733Z,2.98
2019-03-06T23:43:55.359Z,2.97
2019-03-06T23:45:29.316Z,2.99
2019-03-06T23:47:03.014Z,2.99
2019-03-06T23:48:36.727Z,2.98
2019-03-06T23:50:14.263Z,3.01
2019-03-06T23:51:49.048Z,3.02
2019-03-06T23:53:23.029Z,3.05
2019-03-06T23:54:57.080Z,3.07
2019-03-06T23:56:30.772Z,3.09
2019-03-06T23:58:04.933Z,3.11
2019-03-06T23:59:38.669Z,3.15
